Quincy Regional Baldwin Field
KUIN : now visible

Airfield :











YOU CAN JOIN US ON...

 
LOGIN :

Register | Disclaimer

   EN    FR    IT 

 









Legend :    VFR   Marginal VFR   IFR   Intensive IFR   Very Intensive IFR
Visi :
Ceiling :
>= 8 km
>= 3000ft
5 to 8 km
1000 to 3000 ft
1500m to 5 km
500 to 1000 ft
800 to 1500m
200 to 500 ft
< 800m
< 200 ft
Symbols :   Thunderstorms  Fog  Heavy snow  Heavy precipitations  Wind > 20 kt






- Airport Elevation : 768 ft
- IATA code : UIN


KUIN - Quincy Regional Baldwin Field

CURRENT METAR :
  • 150854Z AUTO 32006KT 10SM FEW120 M07/M11 A3007 RMK AO2 SLP192 T10671106 53020

EXPIRED METARs :
  • 150754Z AUTO 32006KT 10SM SCT110 M07/M10 A3005 RMK AO2 SLP186 T10671100
  • 150654Z AUTO 32008KT 10SM CLR M07/M09 A3001 RMK AO2 SLP173 T10671094

TAF KUIN
Valid from the 15 at 06:00 until the 16 at 06:00 UTC


150539Z 1506/1606 33006KT P6SM BKN150
FM151900 08009KT 3SM -SN OVC018
FM152200 07011KT 1 1/2SM -SN BR OVC007



MET'MAP, your aeronautical weather chart ! - Copyright ORBIFLY December 2007 - Disclaimer

ORBIFLY MET'MAP TEAM :

Programming & Development : Alexandra Zaïnal
Concept & original design : Baudouin d'Aumeries
Assistance for programming : Marc-Olivier Méhu
Technical & hardware support : Manuel Goepfert

Contact : metmap@orbifly.com




SOURCES & CREDITS :

   NOAA       Earth
Advisory